Airport View

Enter AWOS ICAO identifier for current METAR.

ex. KFNL

KLKV 261153Z AUTO 32005KT 10SM CLR 04/03 A2990 RMK AO2 SLP105 T00440033 10100 20044 56008

26 Jun 2019 12:56

Frequency: 135.525

Phone: 541-947-5069

Other Area AWOS: KAAT - KLMT - KSIY - KMHS

TAF KLMT 261137Z 2612/2712 VRB03KT P6SM SKC FM261900 20015G25KT P6SM SCT070 FM262200 23020G30KT P6SM VCTS BKN070CB FM270300 29012KT P6SM VCSH BKN080 FM270600 24003KT P6SM BKN080